Terminal Aerodrome Forecast
Issued by NWS Knoxville/Tri Cities, TN

Home | Current Version | Previous Version | Text Only | Print | Product List | Glossary On
Versions: 1 2 3 4 5 6 7 8 9 10 11 12 13 14 15 16 17 18 19 20 21 22 23 24 25 26 27 28 29 30 31 32 33 34 35 36 37 38 39 40 41
000
FTUS44 KMRX 032330
TAFCHA
TAF
KCHA 032330Z 0400/0424 23007KT P6SM BKN030
     FM040200 23007KT P6SM SCT030 BKN050
      TEMPO 0405/0407 19005KT 5SM -SHRA BR BKN035
     FM040700 24007KT 4SM -SHRA BR BKN020
     FM041500 21007KT P6SM SCT012 BKN050
     FM041900 21012KT 5SM -SHRA BR BKN025=

USA.gov is the U.S. government's official web portal to all federal, state and local government web resources and services.